createdAt,value
2019-02-27T00:03:55.856Z,27.00
2019-02-27T00:09:01.209Z,24.90
2019-02-27T00:14:06.623Z,96.40
2019-02-27T00:19:10.440Z,173.13
2019-02-27T00:24:14.148Z,162.30
2019-02-27T00:29:17.774Z,142.27
2019-02-27T00:34:21.475Z,221.63
2019-02-27T00:39:25.344Z,230.93
2019-02-27T00:44:29.133Z,224.67
2019-02-27T00:49:33.062Z,324.65
2019-02-27T00:54:40.810Z,662.03
2019-02-27T00:59:45.421Z,429.33
2019-02-27T01:15:23.708Z,89.87
2019-02-27T01:25:31.636Z,60.27
2019-02-27T01:30:35.456Z,49.23
2019-02-27T01:40:42.688Z,42.53
2019-02-27T01:45:46.304Z,40.93
2019-02-27T01:50:49.822Z,40.07
2019-02-27T01:55:56.213Z,36.10
2019-02-27T02:00:59.301Z,34.67
2019-02-27T02:06:02.816Z,36.77
2019-02-27T02:11:06.438Z,55.70
2019-02-27T02:16:10.079Z,38.55
2019-02-27T02:21:13.763Z,225.10
2019-02-27T02:26:17.477Z,511.70
2019-02-27T02:36:26.394Z,417.60
2019-02-27T02:41:29.870Z,172.53
2019-02-27T02:46:34.604Z,77.37
2019-02-27T02:51:38.431Z,41.50
2019-02-27T02:56:42.023Z,34.70
2019-02-27T03:01:49.386Z,29.40
2019-02-27T03:06:51.677Z,29.33
2019-02-27T03:11:55.833Z,27.85
2019-02-27T03:17:00.054Z,26.63
2019-02-27T03:22:04.709Z,28.47
2019-02-27T03:27:08.768Z,24.77
2019-02-27T03:32:12.389Z,26.83
2019-02-27T03:37:15.887Z,26.43
2019-02-27T03:42:19.507Z,26.60
2019-02-27T03:47:23.042Z,27.30
2019-02-27T03:52:26.612Z,25.20
2019-02-27T03:57:30.374Z,24.77
2019-02-27T04:02:33.870Z,24.57
2019-02-27T04:07:37.488Z,24.12
2019-02-27T04:12:41.066Z,22.93
2019-02-27T04:17:44.719Z,22.55
2019-02-27T04:22:48.326Z,22.80
2019-02-27T04:27:55.281Z,22.27
2019-02-27T04:32:57.284Z,21.47
2019-02-27T04:38:00.810Z,22.40
2019-02-27T04:43:04.425Z,20.80
2019-02-27T04:48:08.016Z,22.77
2019-02-27T04:53:11.655Z,21.07
2019-02-27T04:58:15.295Z,22.52
2019-02-27T05:03:18.785Z,23.20
2019-02-27T05:08:26.916Z,22.60
2019-02-27T05:13:27.759Z,21.13
2019-02-27T05:18:31.373Z,23.63
2019-02-27T05:23:34.967Z,23.30
2019-02-27T05:28:38.605Z,21.73
2019-02-27T05:33:42.349Z,26.63
2019-02-27T05:38:45.850Z,22.70
2019-02-27T05:43:49.451Z,24.45
2019-02-27T05:53:58.440Z,24.77
2019-02-27T05:59:02.663Z,20.87
2019-02-27T06:04:06.284Z,20.20
2019-02-27T06:09:10.415Z,22.97
2019-02-27T06:14:14.643Z,25.93
2019-02-27T06:19:18.349Z,22.80
2019-02-27T06:24:21.815Z,21.20
2019-02-27T06:29:25.484Z,22.10
2019-02-27T06:39:34.421Z,22.63
2019-02-27T06:44:39.255Z,22.97
2019-02-27T06:54:46.531Z,23.10
2019-02-27T07:04:53.656Z,22.67
2019-02-27T07:10:12.381Z,21.97
2019-02-27T07:15:15.837Z,20.77
2019-02-27T07:20:23.903Z,21.27
2019-02-27T07:25:24.709Z,20.93
2019-02-27T07:30:28.451Z,22.13
2019-02-27T07:35:32.014Z,22.80
2019-02-27T07:40:35.667Z,23.70
2019-02-27T07:45:39.372Z,21.47
2019-02-27T07:50:42.964Z,22.87
2019-02-27T07:55:47.405Z,23.23
2019-02-27T08:00:51.417Z,23.47
2019-02-27T08:05:54.831Z,22.80
2019-02-27T08:10:58.470Z,24.50
2019-02-27T08:16:02.049Z,23.57
2019-02-27T08:21:05.611Z,26.10
2019-02-27T08:26:09.320Z,25.60
2019-02-27T08:31:12.830Z,25.67
2019-02-27T08:36:17.033Z,26.23
2019-02-27T08:41:20.588Z,91.30
2019-02-27T08:46:24.291Z,51.20
2019-02-27T08:51:27.999Z,36.80
2019-02-27T08:56:31.624Z,30.13
2019-02-27T09:01:35.278Z,28.67
2019-02-27T09:06:38.790Z,27.23
2019-02-27T09:11:42.782Z,25.77
2019-02-27T09:16:46.396Z,26.83
2019-02-27T09:21:49.990Z,27.70
2019-02-27T09:26:53.528Z,28.30
2019-02-27T09:37:00.650Z,27.40
2019-02-27T09:42:04.276Z,26.53
2019-02-27T09:47:07.782Z,29.30
2019-02-27T09:52:11.499Z,28.47
2019-02-27T10:02:18.424Z,27.07
2019-02-27T10:07:22.026Z,26.00
2019-02-27T10:12:27.752Z,26.50
2019-02-27T10:17:30.991Z,25.93
2019-02-27T10:22:34.553Z,26.37
2019-02-27T10:32:41.658Z,23.27
2019-02-27T10:42:51.353Z,26.30
2019-02-27T10:47:55.274Z,29.02
2019-02-27T10:52:58.780Z,28.27
2019-02-27T10:58:02.497Z,30.03
2019-02-27T11:08:09.523Z,30.93
2019-02-27T11:18:16.653Z,26.40
2019-02-27T11:23:20.371Z,25.67
2019-02-27T11:28:24.009Z,26.50
2019-02-27T11:33:32.509Z,24.87
2019-02-27T11:38:33.022Z,23.83
2019-02-27T11:48:41.735Z,23.07
2019-02-27T11:53:45.342Z,21.37
2019-02-27T11:58:48.855Z,22.70
2019-02-27T12:03:52.680Z,22.90
2019-02-27T12:08:59.535Z,19.33
2019-02-27T12:14:01.550Z,17.90
2019-02-27T12:24:10.416Z,18.25
2019-02-27T12:29:15.569Z,16.20
2019-02-27T12:34:19.287Z,17.27
2019-02-27T12:39:22.801Z,15.23
2019-02-27T12:44:26.416Z,19.67
2019-02-27T12:49:30.022Z,18.83
2019-02-27T12:54:33.646Z,17.93
2019-02-27T12:59:37.370Z,18.32
2019-02-27T13:04:40.956Z,14.13
2019-02-27T13:09:44.608Z,13.57
2019-02-27T13:15:00.383Z,13.57
2019-02-27T13:25:07.529Z,13.20
2019-02-27T13:30:11.067Z,12.63
2019-02-27T13:35:14.651Z,12.87
2019-02-27T13:40:18.283Z,13.43
2019-02-27T13:45:21.796Z,11.90
2019-02-27T13:50:26.820Z,11.10
2019-02-27T13:55:30.665Z,13.80
2019-02-27T14:00:33.869Z,14.83
2019-02-27T14:05:37.778Z,13.33
2019-02-27T14:10:41.396Z,13.63
2019-02-27T14:15:44.987Z,10.90
2019-02-27T14:20:48.531Z,10.87
2019-02-27T14:30:55.657Z,10.93
2019-02-27T14:35:59.291Z,9.38
2019-02-27T14:41:02.779Z,9.13
2019-02-27T14:46:07.036Z,11.80
2019-02-27T14:51:11.216Z,8.67
2019-02-27T14:56:14.761Z,11.78
2019-02-27T15:01:18.374Z,8.87
2019-02-27T15:06:21.970Z,10.60
2019-02-27T15:11:25.603Z,8.33
2019-02-27T15:16:28.814Z,12.60
2019-02-27T15:21:32.487Z,12.20
2019-02-27T15:31:41.030Z,23.90
2019-02-27T15:36:44.606Z,18.80
2019-02-27T15:41:48.260Z,12.70
2019-02-27T15:46:53.440Z,16.57
2019-02-27T15:51:56.969Z,14.60
2019-02-27T15:57:00.715Z,211.63
2019-02-27T16:02:04.434Z,321.97
2019-02-27T16:07:08.148Z,127.73
2019-02-27T16:12:11.754Z,208.10
2019-02-27T16:17:15.607Z,375.70
2019-02-27T16:22:19.398Z,136.97
2019-02-27T16:27:23.091Z,178.77
2019-02-27T16:32:26.645Z,44.57
2019-02-27T16:37:31.482Z,33.43
2019-02-27T16:42:36.360Z,52.80
2019-02-27T16:47:41.395Z,59.53
2019-02-27T16:52:50.785Z,51.30
2019-02-27T16:58:05.552Z,95.37
2019-02-27T17:03:12.947Z,178.53
2019-02-27T17:08:14.536Z,100.80
2019-02-27T17:13:18.208Z,112.00
2019-02-27T17:18:27.829Z,105.73
2019-02-27T17:28:31.506Z,51.00
2019-02-27T17:38:41.434Z,67.47
2019-02-27T17:43:45.766Z,73.92
2019-02-27T17:48:50.028Z,94.77
2019-02-27T17:53:57.910Z,167.47
2019-02-27T17:59:08.266Z,187.13
2019-02-27T18:04:14.321Z,144.87
2019-02-27T18:09:16.156Z,137.10
2019-02-27T18:14:25.024Z,515.27
2019-02-27T18:19:29.523Z,207.83
2019-02-27T18:29:41.195Z,71.93
2019-02-27T18:34:44.587Z,132.10
2019-02-27T18:39:49.453Z,180.55
2019-02-27T18:44:55.047Z,260.70
2019-02-27T18:50:02.399Z,106.32
2019-02-27T19:00:14.852Z,135.03
2019-02-27T19:05:22.169Z,143.03
2019-02-27T19:22:04.432Z,42.03
2019-02-27T19:27:11.018Z,169.33
2019-02-27T19:32:23.127Z,60.87
2019-02-27T19:37:27.864Z,104.47
2019-02-27T19:42:33.281Z,47.23
2019-02-27T19:47:56.266Z,137.30
2019-02-27T19:53:10.680Z,157.37
2019-02-27T19:58:18.108Z,104.63
2019-02-27T20:03:24.973Z,220.83
2019-02-27T20:08:30.781Z,151.33
2019-02-27T20:13:35.307Z,178.60
2019-02-27T20:18:44.265Z,405.47
2019-02-27T20:23:50.197Z,215.10
2019-02-27T20:28:55.015Z,96.03
2019-02-27T20:33:59.376Z,342.63
2019-02-27T20:39:05.609Z,516.00
2019-02-27T20:44:09.388Z,348.93
2019-02-27T20:49:13.969Z,686.73
2019-02-27T20:54:17.767Z,419.40
2019-02-27T20:59:24.761Z,366.13
2019-02-27T21:04:26.824Z,590.23
2019-02-27T21:09:30.854Z,576.80
2019-02-27T21:14:36.961Z,532.00
2019-02-27T21:24:45.673Z,225.53
2019-02-27T21:29:51.192Z,260.90
2019-02-27T21:34:57.387Z,382.97
2019-02-27T21:40:03.233Z,386.10
2019-02-27T21:45:07.183Z,224.83
2019-02-27T21:50:11.808Z,287.70
2019-02-27T21:55:16.187Z,410.97
2019-02-27T22:00:23.163Z,305.43
2019-02-27T22:05:30.685Z,325.23
2019-02-27T22:10:34.403Z,249.63
2019-02-27T22:15:38.110Z,194.00
2019-02-27T22:20:41.739Z,363.93
2019-02-27T22:25:45.458Z,249.07
2019-02-27T22:36:13.489Z,54.67
2019-02-27T22:41:23.995Z,30.68
2019-02-27T22:46:34.150Z,25.40
2019-02-27T22:51:47.377Z,23.73
2019-02-27T22:56:59.775Z,18.10
2019-02-27T23:02:08.992Z,17.00
2019-02-27T23:07:20.587Z,15.93
2019-02-27T23:12:22.284Z,15.40
2019-02-27T23:17:25.822Z,14.47
2019-02-27T23:22:34.533Z,14.50
2019-02-27T23:27:49.985Z,13.87
2019-02-27T23:32:53.674Z,14.13
2019-02-27T23:37:57.285Z,14.73
2019-02-27T23:43:03.422Z,12.00
2019-02-27T23:53:09.685Z,12.78
2019-02-27T23:58:13.296Z,11.97
